Home   Weather   USA   Midland   Past weeks
Flag for USA

Past Weather in Midland, Texas, USA — Yesterday and Last 2 Weeks

Currently: 75 °F. Clear. (Weather station: Midland - Midland Airpark, USA). See more current weather

Past Weather in Midland — Graph

°F

Midland Temperature Yesterday

Maximum temperature yesterday: 76 °F (at 4:55 pm)
Minimum temperature yesterday: 51 °F (at 6:55 am)
Average temperature yesterday: 63 °F

High & Low Weather Summary for the Past Weeks

  Temperature Humidity Pressure
High 96 °F (Apr 28, 4:35 pm) 96% (May 1, 9:55 am) 30.27 "Hg (May 1, 9:55 am)
Low 50 °F (May 2, 6:55 am) 3% (Apr 28, 4:35 pm) 29.66 "Hg (Apr 26, 6:35 pm)
Average 71 °F 44% 29.93 "Hg
* Reported Apr 23 10:35 pm — May 8 10:35 pm, Midland. Weather by CustomWeather, © 2026

Note: Actual official high and low records may vary slightly from our data, if they occured in-between our weather recording intervals... More about our weather records

Midland Weather History for the Previous 24 Hours

Scroll right to see more
  Conditions Comfort    
Time   Temp Weather Wind   Humidity Barometer Visibility
10:35 pm
Fri, May 8
76 °F Clear. 8 mph 46% 29.87 "Hg 10 mi
10:15 pm 76 °F Clear. 8 mph 44% 29.86 "Hg 10 mi
9:55 pm 77 °F Clear. 12 mph 39% 29.86 "Hg 10 mi
9:35 pm 78 °F Clear. 10 mph 35% 29.84 "Hg 10 mi
8:55 pm 79 °F Clear. 6 mph 34% 29.83 "Hg 10 mi
8:35 pm 80 °F Clear. 7 mph 32% 29.83 "Hg 10 mi
7:55 pm 82 °F Sunny. 8 mph 31% 29.82 "Hg 10 mi
7:35 pm 82 °F Sunny. 8 mph 31% 29.81 "Hg 10 mi
7:15 pm 82 °F Sunny. 8 mph 31% 29.81 "Hg 10 mi
6:55 pm 83 °F Sunny. 6 mph 31% 29.81 "Hg 10 mi
6:35 pm 83 °F Sunny. 6 mph 31% 29.81 "Hg 10 mi
5:55 pm 83 °F Sunny. 3 mph 31% 29.81 "Hg 10 mi
5:35 pm 83 °F Sunny. No wind 32% 29.81 "Hg 10 mi
5:15 pm 82 °F Sunny. No wind 34% 29.81 "Hg 10 mi
4:55 pm 81 °F Sunny. 3 mph 34% 29.81 "Hg 10 mi
4:35 pm 82 °F Sunny. 5 mph 35% 29.82 "Hg 10 mi
3:55 pm 79 °F Sunny. 5 mph 42% 29.83 "Hg 10 mi
3:35 pm 78 °F Sunny. No wind 44% 29.84 "Hg 10 mi
2:55 pm 76 °F Sunny. No wind 50% 29.87 "Hg 10 mi
2:35 pm 75 °F Sunny. 3 mph 52% 29.87 "Hg 10 mi
2:15 pm 73 °F Sunny. 3 mph 56% 29.88 "Hg 10 mi
1:55 pm 71 °F Sunny. No wind 60% 29.89 "Hg 10 mi
1:35 pm 70 °F Sunny. 5 mph 61% 29.90 "Hg 10 mi
12:55 pm 67 °F Overcast. No wind 70% 29.93 "Hg 10 mi
12:35 pm 66 °F Overcast. 5 mph 72% 29.93 "Hg 10 mi
11:55 am 64 °F Overcast. 7 mph 77% 29.95 "Hg 10 mi
11:35 am 64 °F Overcast. No wind 78% 29.95 "Hg 10 mi
11:15 am 63 °F Overcast. 5 mph 80% 29.96 "Hg 10 mi
10:55 am 63 °F Overcast. 7 mph 81% 29.96 "Hg 10 mi
10:35 am 62 °F Overcast. 7 mph 83% 29.96 "Hg 10 mi
9:55 am 63 °F Overcast. 7 mph 83% 29.96 "Hg 10 mi
9:35 am 62 °F Low clouds. 7 mph 89% 29.96 "Hg 10 mi
9:15 am 61 °F Low clouds. 8 mph 92% 29.96 "Hg 10 mi
8:55 am 61 °F Fog. 8 mph 96% 29.97 "Hg 5 mi
8:35 am 61 °F Fog. 3 mph 93% 29.97 "Hg 4 mi
7:55 am 62 °F Low clouds. 7 mph 89% 29.96 "Hg 10 mi
7:35 am 62 °F Fog. 6 mph 90% 29.96 "Hg 5 mi
7:15 am 61 °F Low clouds. 5 mph 91% 29.95 "Hg 10 mi
6:55 am 62 °F Low clouds. 8 mph 90% 29.94 "Hg 10 mi
6:35 am 62 °F Low clouds. 8 mph 88% 29.95 "Hg 10 mi
5:55 am 63 °F Overcast. 8 mph 84% 29.95 "Hg 10 mi
5:35 am 63 °F Overcast. 6 mph 76% 29.95 "Hg 10 mi
5:15 am 62 °F Overcast. 6 mph 76% 29.95 "Hg 10 mi
4:55 am 62 °F Overcast. 7 mph 76% 29.95 "Hg 10 mi
4:35 am 62 °F Overcast. 7 mph 76% 29.95 "Hg 10 mi
3:55 am 62 °F Overcast. 3 mph 75% 29.95 "Hg 10 mi
3:35 am 61 °F Mostly cloudy. No wind 77% 29.96 "Hg 10 mi
2:55 am 61 °F Overcast. 3 mph 76% 29.97 "Hg 10 mi
2:35 am 61 °F Overcast. No wind 77% 29.98 "Hg 10 mi
2:15 am 60 °F Overcast. 3 mph 77% 29.98 "Hg 10 mi
1:55 am 60 °F Passing clouds. 3 mph 77% 29.99 "Hg 10 mi
1:35 am 60 °F Clear. 3 mph 77% 30.00 "Hg 10 mi
12:55 am 60 °F Passing clouds. 7 mph 77% 30.00 "Hg 10 mi
12:35 am 61 °F Overcast. 5 mph 76% 30.00 "Hg 10 mi
12:15 am 61 °F Passing clouds. 10 mph 75% 30.00 "Hg 10 mi
11:55 pm
Thu, May 7
61 °F Clear. 14 mph 74% 29.99 "Hg 10 mi
11:35 pm 62 °F Clear. 15 mph 71% 30.00 "Hg 10 mi
Weather by CustomWeather, © 2026

See weather overview